createdAt,value
2018-04-09T00:02:15.049Z,19.47
2018-04-09T00:04:42.978Z,18.00
2018-04-09T00:07:10.883Z,18.77
2018-04-09T00:09:38.836Z,21.20
2018-04-09T00:12:06.750Z,21.77
2018-04-09T00:14:34.688Z,20.47
2018-04-09T00:17:02.621Z,19.70
2018-04-09T00:19:30.546Z,19.70
2018-04-09T00:21:59.339Z,20.33
2018-04-09T00:24:27.261Z,19.70
2018-04-09T00:26:55.188Z,19.87
2018-04-09T00:29:23.097Z,20.53
2018-04-09T00:31:51.017Z,19.70
2018-04-09T00:34:18.956Z,18.80
2018-04-09T00:36:46.875Z,20.70
2018-04-09T00:39:14.828Z,19.43
2018-04-09T00:41:42.739Z,19.40
2018-04-09T00:44:10.654Z,19.90
2018-04-09T00:46:38.589Z,21.13
2018-04-09T00:49:06.505Z,21.20
2018-04-09T00:51:34.464Z,20.10
2018-04-09T00:54:02.397Z,22.40
2018-04-09T00:56:30.277Z,20.73
2018-04-09T00:58:58.293Z,22.33
2018-04-09T01:01:26.236Z,21.20
2018-04-09T01:03:54.187Z,22.57
2018-04-09T01:06:22.126Z,24.10
2018-04-09T01:08:50.053Z,20.97
2018-04-09T01:11:17.999Z,21.93
2018-04-09T01:13:45.933Z,21.27
2018-04-09T01:16:13.885Z,22.80
2018-04-09T01:18:41.805Z,20.77
2018-04-09T01:21:09.793Z,22.40
2018-04-09T01:23:37.716Z,22.47
2018-04-09T01:26:05.635Z,20.57
2018-04-09T01:28:33.564Z,21.57
2018-04-09T01:31:01.485Z,21.30
2018-04-09T01:33:29.431Z,21.20
2018-04-09T01:35:57.359Z,21.73
2018-04-09T01:38:25.286Z,22.77
2018-04-09T01:40:53.236Z,21.43
2018-04-09T01:43:21.161Z,22.30
2018-04-09T01:45:49.072Z,23.47
2018-04-09T01:48:17.004Z,24.67
2018-04-09T01:50:44.936Z,23.03
2018-04-09T01:53:12.868Z,24.50
2018-04-09T01:55:40.775Z,21.47
2018-04-09T01:58:08.726Z,19.73
2018-04-09T02:00:36.667Z,22.17
2018-04-09T02:03:04.587Z,23.40
2018-04-09T02:05:32.519Z,23.47
2018-04-09T02:08:00.435Z,22.83
2018-04-09T02:10:28.353Z,22.00
2018-04-09T02:12:56.261Z,25.60
2018-04-09T02:15:24.207Z,23.03
2018-04-09T02:17:52.137Z,24.80
2018-04-09T02:20:20.047Z,22.67
2018-04-09T02:22:47.981Z,23.03
2018-04-09T02:25:16.051Z,23.33
2018-04-09T02:27:43.957Z,23.10
2018-04-09T02:30:11.898Z,24.17
2018-04-09T02:32:39.821Z,23.43
2018-04-09T02:35:07.754Z,23.70
2018-04-09T02:37:35.679Z,24.57
2018-04-09T02:40:03.607Z,25.93
2018-04-09T02:42:31.555Z,25.20
2018-04-09T02:44:59.466Z,22.20
2018-04-09T02:47:27.395Z,23.57
2018-04-09T02:49:55.311Z,23.73
2018-04-09T02:52:23.249Z,25.30
2018-04-09T02:54:51.169Z,24.70
2018-04-09T02:57:19.098Z,24.57
2018-04-09T02:59:47.017Z,23.43
2018-04-09T03:02:14.945Z,25.33
2018-04-09T03:04:42.882Z,25.17
2018-04-09T03:07:10.813Z,25.77
2018-04-09T03:09:38.749Z,22.80
2018-04-09T03:12:06.695Z,23.03
2018-04-09T03:14:34.618Z,25.50
2018-04-09T03:17:02.555Z,24.67
2018-04-09T03:19:30.488Z,25.70
2018-04-09T03:21:58.420Z,24.87
2018-04-09T03:24:26.375Z,22.70
2018-04-09T03:26:54.297Z,23.03
2018-04-09T03:29:22.213Z,23.60
2018-04-09T03:31:50.221Z,24.27
2018-04-09T03:34:18.148Z,23.47
2018-04-09T03:36:46.578Z,26.17
2018-04-09T03:39:14.489Z,25.13
2018-04-09T03:41:42.412Z,26.83
2018-04-09T03:44:10.340Z,25.40
2018-04-09T03:46:38.972Z,25.73
2018-04-09T03:49:06.906Z,24.37
2018-04-09T03:51:34.814Z,25.07
2018-04-09T03:54:02.729Z,26.50
2018-04-09T03:56:30.657Z,26.67
2018-04-09T03:58:58.580Z,24.50
2018-04-09T04:01:26.506Z,25.97
2018-04-09T04:03:54.460Z,24.20
2018-04-09T04:06:22.353Z,25.00
2018-04-09T04:08:50.361Z,25.27
2018-04-09T04:11:18.283Z,27.27
2018-04-09T04:13:46.196Z,27.83
2018-04-09T04:16:25.906Z,26.07
2018-04-09T04:19:05.549Z,25.10
2018-04-09T04:21:48.326Z,26.90
2018-04-09T04:24:16.275Z,29.30
2018-04-09T04:26:44.165Z,26.47
2018-04-09T04:29:12.109Z,29.87
2018-04-09T04:31:40.625Z,27.03
2018-04-09T04:34:08.537Z,26.40
2018-04-09T04:36:36.465Z,25.30
2018-04-09T04:39:04.374Z,25.90
2018-04-09T04:41:32.338Z,25.67
2018-04-09T04:44:00.381Z,24.33
2018-04-09T04:46:28.311Z,26.00
2018-04-09T04:48:56.250Z,26.87
2018-04-09T04:51:24.185Z,25.13
2018-04-09T04:53:52.103Z,28.90
2018-04-09T04:56:20.027Z,27.33
2018-04-09T04:58:48.879Z,25.80
2018-04-09T05:01:16.799Z,30.10
2018-04-09T05:03:44.714Z,28.40
2018-04-09T05:06:12.651Z,29.13
2018-04-09T05:08:40.554Z,27.00
2018-04-09T05:11:08.487Z,26.63
2018-04-09T05:13:36.392Z,28.67
2018-04-09T05:16:04.358Z,28.07
2018-04-09T05:18:32.285Z,27.60
2018-04-09T05:21:00.198Z,28.43
2018-04-09T05:23:28.145Z,27.83
2018-04-09T05:25:56.048Z,30.13
2018-04-09T05:28:23.979Z,28.07
2018-04-09T05:30:52.124Z,26.23
2018-04-09T05:33:20.099Z,26.20
2018-04-09T05:35:48.053Z,28.30
2018-04-09T05:38:15.989Z,30.17
2018-04-09T05:40:43.929Z,26.60
2018-04-09T05:43:11.830Z,28.47
2018-04-09T05:45:40.084Z,28.60
2018-04-09T05:48:08.026Z,26.37
2018-04-09T05:50:36.759Z,27.13
2018-04-09T05:53:04.694Z,25.60
2018-04-09T05:55:32.677Z,28.80
2018-04-09T05:58:00.603Z,29.33
2018-04-09T06:00:28.867Z,30.93
2018-04-09T06:02:56.790Z,26.53
2018-04-09T06:05:24.756Z,28.77
2018-04-09T06:07:52.803Z,25.27
2018-04-09T06:10:20.723Z,25.07
2018-04-09T06:12:48.666Z,27.60
2018-04-09T06:15:16.594Z,27.63
2018-04-09T06:17:44.577Z,26.80
2018-04-09T06:20:12.546Z,23.20
2018-04-09T06:22:41.288Z,24.23
2018-04-09T06:25:09.258Z,23.73
2018-04-09T06:27:37.180Z,26.03
2018-04-09T06:30:05.097Z,25.27
2018-04-09T06:32:33.056Z,25.70
2018-04-09T06:35:01.939Z,26.70
2018-04-09T06:37:29.861Z,26.47
2018-04-09T06:39:57.785Z,24.83
2018-04-09T06:42:25.769Z,25.27
2018-04-09T06:44:53.670Z,25.90
2018-04-09T06:47:21.608Z,25.20
2018-04-09T06:49:49.546Z,26.57
2018-04-09T06:52:17.461Z,25.83
2018-04-09T06:54:45.391Z,25.60
2018-04-09T06:57:13.329Z,26.37
2018-04-09T06:59:42.181Z,26.40
2018-04-09T07:02:10.088Z,25.97
2018-04-09T07:04:38.742Z,26.33
2018-04-09T07:07:06.670Z,26.70
2018-04-09T07:09:34.597Z,25.93
2018-04-09T07:12:02.526Z,27.23
2018-04-09T07:14:30.480Z,26.13
2018-04-09T07:16:58.463Z,25.73
2018-04-09T07:19:26.458Z,25.60
2018-04-09T07:21:54.373Z,26.27
2018-04-09T07:24:22.296Z,28.53
2018-04-09T07:26:50.206Z,27.20
2018-04-09T07:29:18.122Z,29.43
2018-04-09T07:31:46.058Z,28.40
2018-04-09T07:34:14.001Z,26.40
2018-04-09T07:36:41.905Z,27.40
2018-04-09T07:39:09.842Z,27.67
2018-04-09T07:41:37.750Z,28.03
2018-04-09T07:44:05.687Z,28.20
2018-04-09T07:46:33.600Z,29.40
2018-04-09T07:49:01.536Z,27.97
2018-04-09T07:51:29.436Z,28.50
2018-04-09T07:53:57.373Z,26.97
2018-04-09T07:56:25.278Z,26.40
2018-04-09T07:58:53.206Z,26.43
2018-04-09T08:01:21.112Z,28.27
2018-04-09T08:03:49.049Z,27.07
2018-04-09T08:06:17.044Z,29.33
2018-04-09T08:08:44.962Z,29.33
2018-04-09T08:11:12.865Z,27.03
2018-04-09T08:13:40.880Z,27.17
2018-04-09T08:16:08.793Z,28.67
2018-04-09T08:18:36.722Z,28.20
2018-04-09T08:21:04.626Z,28.67
2018-04-09T08:23:32.574Z,28.17
2018-04-09T08:26:00.527Z,29.10
2018-04-09T08:28:28.438Z,29.60
2018-04-09T08:30:56.378Z,29.87
2018-04-09T08:33:25.182Z,28.90
2018-04-09T08:35:53.169Z,26.80
2018-04-09T08:38:21.089Z,28.50
2018-04-09T08:40:49.014Z,24.67
2018-04-09T08:43:16.949Z,28.27
2018-04-09T08:45:44.872Z,26.23
2018-04-09T08:48:12.820Z,26.87
2018-04-09T08:50:40.738Z,27.30
2018-04-09T08:53:08.645Z,28.00
2018-04-09T08:55:36.572Z,26.63
2018-04-09T08:58:04.500Z,26.50
2018-04-09T09:00:32.426Z,29.33
2018-04-09T09:03:00.329Z,28.13
2018-04-09T09:05:28.246Z,28.30
2018-04-09T09:07:56.169Z,27.80
2018-04-09T09:10:24.092Z,28.97
2018-04-09T09:12:52.052Z,26.50
2018-04-09T09:15:19.974Z,28.47
2018-04-09T09:17:47.905Z,27.77
2018-04-09T09:20:15.849Z,25.33
2018-04-09T09:22:43.781Z,23.47
2018-04-09T09:25:11.726Z,24.37
2018-04-09T09:27:39.652Z,26.30
2018-04-09T09:30:07.592Z,25.30
2018-04-09T09:32:35.522Z,25.60
2018-04-09T09:35:03.453Z,22.17
2018-04-09T09:37:31.362Z,20.67
2018-04-09T09:39:59.329Z,21.80
2018-04-09T09:42:27.246Z,23.87
2018-04-09T09:44:55.258Z,23.97
2018-04-09T09:47:23.183Z,22.77
2018-04-09T09:49:51.102Z,21.60
2018-04-09T09:52:19.041Z,23.47
2018-04-09T09:54:46.974Z,23.30
2018-04-09T09:57:14.909Z,25.70
2018-04-09T09:59:42.813Z,20.80
2018-04-09T10:02:10.737Z,21.47
2018-04-09T10:04:38.662Z,23.13
2018-04-09T10:07:07.428Z,20.07
2018-04-09T10:09:35.339Z,19.53
2018-04-09T10:12:03.237Z,20.63
2018-04-09T10:14:31.159Z,20.53
2018-04-09T10:16:59.065Z,20.10
2018-04-09T10:19:27.007Z,21.53
2018-04-09T10:21:54.921Z,22.30
2018-04-09T10:24:22.867Z,22.80
2018-04-09T10:26:50.796Z,21.57
2018-04-09T10:29:18.700Z,23.10
2018-04-09T10:31:46.644Z,23.73
2018-04-09T10:34:14.916Z,23.13
2018-04-09T10:36:42.789Z,23.00
2018-04-09T10:39:10.727Z,21.60
2018-04-09T10:41:38.641Z,22.83
2018-04-09T10:44:06.545Z,22.83
2018-04-09T10:46:34.453Z,19.17
2018-04-09T10:49:02.390Z,18.77
2018-04-09T10:51:30.309Z,18.20
2018-04-09T10:53:58.256Z,18.03
2018-04-09T10:56:26.185Z,20.00
2018-04-09T10:58:54.124Z,16.93
2018-04-09T11:01:22.036Z,16.20
2018-04-09T11:03:49.955Z,16.50
2018-04-09T11:06:17.887Z,19.20
2018-04-09T11:08:45.799Z,20.23
2018-04-09T11:11:13.714Z,20.60
2018-04-09T11:13:41.660Z,19.80
2018-04-09T11:16:09.561Z,18.90
2018-04-09T11:18:37.497Z,19.17
2018-04-09T11:21:05.413Z,18.57
2018-04-09T11:23:33.341Z,19.90
2018-04-09T11:26:01.265Z,17.87
2018-04-09T11:28:29.194Z,19.57
2018-04-09T11:30:57.120Z,20.50
2018-04-09T11:33:25.028Z,19.20
2018-04-09T11:35:52.933Z,19.20
2018-04-09T11:38:20.872Z,17.70
2018-04-09T11:40:49.338Z,18.80
2018-04-09T11:43:17.276Z,19.60
2018-04-09T11:45:45.175Z,19.30
2018-04-09T11:48:13.088Z,17.63
2018-04-09T11:50:41.013Z,18.20
2018-04-09T11:53:08.928Z,20.60
2018-04-09T11:55:36.864Z,18.97
2018-04-09T11:58:04.767Z,18.43
2018-04-09T12:00:32.683Z,18.00
2018-04-09T12:03:00.612Z,18.50
2018-04-09T12:05:28.698Z,20.70
2018-04-09T12:07:56.603Z,19.53
2018-04-09T12:10:24.550Z,18.63
2018-04-09T12:12:52.432Z,17.73
2018-04-09T12:15:20.361Z,16.37
2018-04-09T12:17:48.277Z,16.50
2018-04-09T12:20:16.218Z,18.77
2018-04-09T12:22:44.216Z,18.77
2018-04-09T12:25:12.095Z,17.53
2018-04-09T12:27:40.024Z,17.53
2018-04-09T12:30:07.931Z,15.60
2018-04-09T12:32:35.867Z,14.53
2018-04-09T12:35:03.778Z,15.07
2018-04-09T12:37:31.675Z,15.17
2018-04-09T12:39:59.614Z,15.90
2018-04-09T12:42:27.516Z,14.27
2018-04-09T12:44:55.463Z,15.50
2018-04-09T12:47:23.387Z,13.67
2018-04-09T12:49:51.272Z,14.97
2018-04-09T12:52:19.211Z,15.10
2018-04-09T12:54:47.148Z,15.47
2018-04-09T12:57:15.095Z,14.00
2018-04-09T12:59:42.999Z,14.60
2018-04-09T13:02:11.314Z,14.87
2018-04-09T13:04:39.240Z,15.30
2018-04-09T13:07:07.155Z,15.90
2018-04-09T13:09:35.756Z,15.50
2018-04-09T13:12:03.686Z,16.63
2018-04-09T13:14:31.590Z,16.47
2018-04-09T13:16:59.524Z,16.23
2018-04-09T13:19:27.447Z,16.73
2018-04-09T13:21:55.375Z,16.40
2018-04-09T13:24:23.287Z,23.70
2018-04-09T13:26:51.259Z,32.30
2018-04-09T13:29:19.199Z,33.83
2018-04-09T13:31:47.125Z,30.70
2018-04-09T13:34:15.925Z,31.70
2018-04-09T13:36:43.835Z,32.53
2018-04-09T13:39:11.761Z,29.47
2018-04-09T13:41:39.843Z,30.77
2018-04-09T13:44:07.927Z,33.13
2018-04-09T13:46:36.017Z,31.33
2018-04-09T13:49:04.569Z,31.17
2018-04-09T13:51:32.515Z,32.80
2018-04-09T13:54:00.442Z,32.03
2018-04-09T13:56:28.361Z,32.87
2018-04-09T13:58:56.302Z,35.47
2018-04-09T14:01:24.374Z,34.17
2018-04-09T14:03:52.340Z,34.93
2018-04-09T14:06:20.276Z,35.57
2018-04-09T14:08:48.202Z,34.93
2018-04-09T14:11:16.127Z,38.03
2018-04-09T14:13:44.043Z,38.37
2018-04-09T14:16:12.094Z,39.47
2018-04-09T14:18:39.983Z,36.20
2018-04-09T14:21:07.924Z,33.87
2018-04-09T14:23:36.679Z,36.53
2018-04-09T14:26:04.606Z,35.87
2018-04-09T14:28:32.519Z,38.27
2018-04-09T14:31:00.439Z,36.13
2018-04-09T14:33:28.371Z,33.97
2018-04-09T14:35:56.275Z,35.87
2018-04-09T14:38:24.211Z,35.83
2018-04-09T14:40:52.143Z,33.67
2018-04-09T14:43:20.046Z,36.63
2018-04-09T14:45:48.515Z,35.23
2018-04-09T14:48:16.432Z,32.83
2018-04-09T14:50:44.382Z,33.90
2018-04-09T14:53:12.301Z,33.73
2018-04-09T14:55:40.204Z,35.47
2018-04-09T14:58:08.144Z,34.33
2018-04-09T15:00:36.921Z,33.83
2018-04-09T15:03:04.850Z,33.17
2018-04-09T15:05:32.869Z,33.10
2018-04-09T15:08:00.773Z,36.07
2018-04-09T15:10:28.688Z,33.37
2018-04-09T15:12:56.600Z,35.10
2018-04-09T15:15:24.549Z,39.03
2018-04-09T15:17:52.465Z,69.50
2018-04-09T15:20:20.873Z,42.90
2018-04-09T15:22:48.819Z,70.80
2018-04-09T15:25:16.699Z,46.17
2018-04-09T15:27:44.631Z,84.50
2018-04-09T15:30:12.540Z,75.67
2018-04-09T15:32:40.490Z,56.13
2018-04-09T15:35:08.406Z,105.03
2018-04-09T15:37:36.344Z,51.47
2018-04-09T15:40:04.247Z,53.57
2018-04-09T15:42:32.187Z,43.53
2018-04-09T15:45:00.126Z,47.10
2018-04-09T15:47:28.033Z,43.73
2018-04-09T15:49:55.959Z,44.63
2018-04-09T15:52:23.979Z,45.13
2018-04-09T15:54:51.913Z,38.17
2018-04-09T15:57:19.836Z,41.83
2018-04-09T15:59:47.751Z,38.47
2018-04-09T16:02:15.664Z,40.13
2018-04-09T16:04:43.597Z,36.93
2018-04-09T16:07:11.580Z,40.97
2018-04-09T16:09:39.528Z,39.67
2018-04-09T16:12:07.491Z,38.80
2018-04-09T16:14:35.767Z,40.10
2018-04-09T16:17:03.679Z,39.70
2018-04-09T16:19:31.608Z,38.60
2018-04-09T16:21:59.551Z,79.03
2018-04-09T16:24:27.827Z,102.13
2018-04-09T16:26:55.744Z,70.13
2018-04-09T16:29:23.670Z,107.37
2018-04-09T16:31:51.611Z,98.63
2018-04-09T16:34:19.523Z,97.07
2018-04-09T16:36:47.521Z,69.23
2018-04-09T16:39:15.533Z,53.77
2018-04-09T16:41:43.452Z,71.20
2018-04-09T16:44:11.361Z,51.63
2018-04-09T16:46:39.517Z,46.03
2018-04-09T16:49:07.448Z,41.67
2018-04-09T16:51:35.414Z,42.23
2018-04-09T16:54:03.394Z,41.13
2018-04-09T16:56:31.294Z,42.13
2018-04-09T16:58:59.241Z,38.73
2018-04-09T17:01:27.523Z,39.10
2018-04-09T17:03:55.436Z,38.73
2018-04-09T17:06:23.425Z,33.77
2018-04-09T17:08:51.320Z,37.57
2018-04-09T17:11:19.847Z,36.37
2018-04-09T17:13:47.771Z,133.33
2018-04-09T17:16:15.702Z,99.90
2018-04-09T17:18:43.623Z,91.87
2018-04-09T17:21:11.523Z,85.80
2018-04-09T17:23:39.457Z,88.67
2018-04-09T17:26:07.366Z,98.53
2018-04-09T17:28:36.000Z,111.07
2018-04-09T17:31:03.919Z,79.37
2018-04-09T17:33:31.855Z,56.27
2018-04-09T17:35:59.771Z,54.23
2018-04-09T17:38:27.680Z,46.10
2018-04-09T17:40:55.630Z,43.47
2018-04-09T17:43:23.615Z,43.57
2018-04-09T17:45:51.536Z,39.90
2018-04-09T17:48:19.473Z,38.77
2018-04-09T17:50:47.388Z,35.57
2018-04-09T17:53:15.292Z,35.33
2018-04-09T17:55:43.226Z,37.37
2018-04-09T17:58:11.153Z,36.17
2018-04-09T18:00:39.059Z,37.63
2018-04-09T18:03:06.987Z,36.73
2018-04-09T18:05:34.916Z,36.13
2018-04-09T18:08:02.823Z,34.10
2018-04-09T18:10:30.745Z,35.90
2018-04-09T18:12:58.732Z,34.90
2018-04-09T18:15:26.657Z,35.73
2018-04-09T18:17:54.579Z,34.50
2018-04-09T18:20:22.486Z,34.80
2018-04-09T18:22:50.416Z,34.57
2018-04-09T18:25:18.337Z,33.50
2018-04-09T18:27:46.290Z,35.00
2018-04-09T18:30:14.215Z,35.70
2018-04-09T18:32:42.142Z,37.53
2018-04-09T18:35:10.065Z,35.83
2018-04-09T18:37:37.984Z,36.67
2018-04-09T18:40:05.925Z,35.57
2018-04-09T18:42:33.851Z,37.27
2018-04-09T18:45:01.770Z,36.87
2018-04-09T18:47:29.692Z,35.50
2018-04-09T18:49:57.607Z,35.20
2018-04-09T18:52:25.720Z,38.60
2018-04-09T18:54:53.621Z,37.73
2018-04-09T18:57:21.533Z,37.10
2018-04-09T18:59:49.467Z,36.77
2018-04-09T19:02:17.375Z,37.00
2018-04-09T19:04:45.323Z,39.97
2018-04-09T19:07:13.244Z,37.83
2018-04-09T19:09:41.153Z,38.40
2018-04-09T19:12:09.121Z,38.17
2018-04-09T19:14:37.023Z,36.37
2018-04-09T19:17:04.955Z,37.77
2018-04-09T19:19:32.885Z,36.97
2018-04-09T19:22:00.792Z,36.07
2018-04-09T19:24:28.716Z,36.80
2018-04-09T19:26:57.128Z,36.87
2018-04-09T19:29:25.106Z,34.97
2018-04-09T19:31:53.016Z,36.97
2018-04-09T19:34:21.095Z,34.70
2018-04-09T19:36:54.662Z,35.73
2018-04-09T19:39:28.326Z,35.33
2018-04-09T19:47:37.992Z,34.93
2018-04-09T19:50:05.938Z,38.37
2018-04-09T19:52:33.861Z,36.20
2018-04-09T19:55:01.774Z,34.43
2018-04-09T19:57:29.700Z,36.47
2018-04-09T19:59:57.995Z,34.97
2018-04-09T20:02:25.919Z,34.70
2018-04-09T20:04:53.968Z,36.30
2018-04-09T20:07:21.987Z,34.63
2018-04-09T20:09:51.690Z,37.70
2018-04-09T20:12:20.254Z,33.47
2018-04-09T20:14:48.292Z,33.97
2018-04-09T20:17:16.334Z,34.73
2018-04-09T20:19:45.313Z,34.43
2018-04-09T20:22:15.485Z,34.30
2018-04-09T20:24:43.407Z,34.73
2018-04-09T20:27:11.347Z,34.93
2018-04-09T20:29:39.272Z,34.47
2018-04-09T20:32:07.179Z,56.63
2018-04-09T20:34:35.841Z,66.93
2018-04-09T20:37:03.763Z,52.57
2018-04-09T20:39:32.035Z,38.07
2018-04-09T20:41:59.933Z,85.30
2018-04-09T20:44:27.864Z,99.83
2018-04-09T20:46:55.775Z,125.47
2018-04-09T20:49:23.707Z,54.27
2018-04-09T20:51:51.678Z,32.63
2018-04-09T20:54:19.593Z,35.10
2018-04-09T20:56:47.511Z,35.00
2018-04-09T20:59:15.414Z,31.67
2018-04-09T21:01:43.387Z,34.47
2018-04-09T21:04:11.300Z,31.53
2018-04-09T21:06:39.383Z,31.93
2018-04-09T21:09:07.298Z,32.77
2018-04-09T21:11:35.231Z,33.60
2018-04-09T21:14:03.164Z,31.23
2018-04-09T21:16:31.074Z,30.43
2018-04-09T21:18:59.009Z,29.47
2018-04-09T21:21:26.916Z,30.00
2018-04-09T21:23:54.842Z,29.37
2018-04-09T21:26:22.771Z,30.63
2018-04-09T21:28:50.683Z,29.90
2018-04-09T21:31:18.608Z,29.43
2018-04-09T21:33:46.518Z,27.77
2018-04-09T21:36:14.696Z,31.67
2018-04-09T21:38:42.635Z,27.30
2018-04-09T21:41:10.551Z,28.33
2018-04-09T21:43:38.470Z,29.57
2018-04-09T21:46:06.763Z,29.97
2018-04-09T21:48:34.684Z,30.17
2018-04-09T21:51:02.602Z,26.87
2018-04-09T21:53:30.504Z,28.90
2018-04-09T21:55:58.425Z,28.70
2018-04-09T21:58:26.334Z,28.70
2018-04-09T22:00:54.259Z,28.57
2018-04-09T22:03:22.168Z,27.10
2018-04-09T22:05:50.087Z,28.20
2018-04-09T22:08:17.991Z,26.87
2018-04-09T22:10:45.903Z,27.10
2018-04-09T22:13:13.836Z,24.77
2018-04-09T22:15:41.744Z,26.20
2018-04-09T22:18:09.646Z,24.47
2018-04-09T22:20:37.592Z,25.47
2018-04-09T22:23:05.470Z,24.17
2018-04-09T22:25:33.403Z,26.27
2018-04-09T22:28:01.318Z,26.10
2018-04-09T22:30:29.227Z,26.17
2018-04-09T22:32:57.167Z,24.73
2018-04-09T22:35:25.068Z,24.93
2018-04-09T22:37:53.072Z,23.80
2018-04-09T22:40:20.980Z,24.20
2018-04-09T22:42:48.879Z,23.77
2018-04-09T22:45:16.795Z,22.50
2018-04-09T22:47:44.700Z,24.03
2018-04-09T22:50:12.638Z,22.77
2018-04-09T22:52:40.809Z,25.10
2018-04-09T22:55:09.074Z,26.27
2018-04-09T22:57:36.995Z,22.90
2018-04-09T23:00:04.923Z,24.97
2018-04-09T23:02:32.858Z,23.27
2018-04-09T23:05:00.764Z,23.60
2018-04-09T23:07:28.672Z,23.87
2018-04-09T23:09:56.589Z,22.77
2018-04-09T23:12:24.491Z,22.50
2018-04-09T23:14:53.014Z,24.40
2018-04-09T23:17:20.927Z,23.60
2018-04-09T23:19:48.841Z,26.53
2018-04-09T23:22:28.522Z,24.43
2018-04-09T23:24:56.439Z,24.17
2018-04-09T23:27:24.455Z,24.90
2018-04-09T23:29:52.364Z,23.47
2018-04-09T23:32:20.267Z,24.40
2018-04-09T23:34:48.191Z,25.30
2018-04-09T23:37:16.101Z,24.57
2018-04-09T23:39:44.021Z,23.93
2018-04-09T23:42:11.927Z,25.17
2018-04-09T23:44:40.887Z,27.67
2018-04-09T23:47:08.820Z,28.20
2018-04-09T23:49:36.737Z,24.50
2018-04-09T23:52:05.751Z,27.30
2018-04-09T23:54:33.654Z,27.80
2018-04-09T23:57:01.550Z,29.03
2018-04-09T23:59:30.179Z,29.13
